createdAt,value
2017-04-19T00:00:46.749Z,728.79
2017-04-19T00:01:46.726Z,728.77
2017-04-19T00:02:46.701Z,728.81
2017-04-19T00:03:46.678Z,728.74
2017-04-19T00:04:46.654Z,728.78
2017-04-19T00:05:46.630Z,728.74
2017-04-19T00:06:46.606Z,728.79
2017-04-19T00:07:46.582Z,728.69
2017-04-19T00:08:46.558Z,728.73
2017-04-19T00:09:46.532Z,728.74
2017-04-19T00:10:46.509Z,728.67
2017-04-19T00:11:46.487Z,728.63
2017-04-19T00:12:46.461Z,728.69
2017-04-19T00:13:46.438Z,728.66
2017-04-19T00:14:46.415Z,728.68
2017-04-19T00:15:46.389Z,728.65
2017-04-19T00:16:46.366Z,728.68
2017-04-19T00:17:46.343Z,728.6
2017-04-19T00:18:46.319Z,728.56
2017-04-19T00:19:46.294Z,728.56
2017-04-19T00:20:46.271Z,728.55
2017-04-19T00:21:46.247Z,728.51
2017-04-19T00:22:46.225Z,728.44
2017-04-19T00:23:46.201Z,728.43
2017-04-19T00:24:46.177Z,728.46
2017-04-19T00:25:46.153Z,728.42
2017-04-19T00:26:46.129Z,728.46
2017-04-19T00:27:46.103Z,728.46
2017-04-19T00:28:46.081Z,728.47
2017-04-19T00:29:46.057Z,728.46
2017-04-19T00:30:46.032Z,728.46
2017-04-19T00:31:46.009Z,728.42
2017-04-19T00:32:45.983Z,728.39
2017-04-19T00:33:45.960Z,728.47
2017-04-19T00:34:45.935Z,728.44
2017-04-19T00:35:45.911Z,728.43
2017-04-19T00:36:45.887Z,728.37
2017-04-19T00:37:45.862Z,728.34
2017-04-19T00:38:45.838Z,728.37
2017-04-19T00:39:45.833Z,728.34
2017-04-19T00:40:45.789Z,728.4
2017-04-19T00:41:45.764Z,728.36
2017-04-19T00:42:45.739Z,728.38
2017-04-19T00:43:45.715Z,728.44
2017-04-19T00:44:45.691Z,728.41
2017-04-19T00:45:45.666Z,728.37
2017-04-19T00:46:45.642Z,728.44
2017-04-19T00:47:45.617Z,728.34
2017-04-19T00:48:45.591Z,728.39
2017-04-19T00:49:45.568Z,728.44
2017-04-19T00:50:45.542Z,728.49
2017-04-19T00:51:45.519Z,728.48
2017-04-19T00:52:45.494Z,728.5
2017-04-19T00:53:45.469Z,728.53
2017-04-19T00:54:45.445Z,728.48
2017-04-19T00:55:45.420Z,728.54
2017-04-19T00:56:45.412Z,728.58
2017-04-19T00:57:45.372Z,728.56
2017-04-19T00:58:45.346Z,728.64
2017-04-19T00:59:45.322Z,728.65
2017-04-19T01:00:45.300Z,728.59
2017-04-19T01:01:45.273Z,728.65
2017-04-19T01:02:45.251Z,728.6
2017-04-19T01:03:45.223Z,728.61
2017-04-19T01:04:45.201Z,728.62
2017-04-19T01:05:45.178Z,728.68
2017-04-19T01:06:45.153Z,728.76
2017-04-19T01:07:45.129Z,728.72
2017-04-19T01:08:45.104Z,728.8
2017-04-19T01:09:45.082Z,728.7
2017-04-19T01:10:45.058Z,728.75
2017-04-19T01:11:45.034Z,728.73
2017-04-19T01:12:45.011Z,728.73
2017-04-19T01:13:44.988Z,728.77
2017-04-19T01:14:44.965Z,728.8
2017-04-19T01:15:44.939Z,728.78
2017-04-19T01:16:44.917Z,728.81
2017-04-19T01:17:44.893Z,728.85
2017-04-19T01:18:44.868Z,728.82
2017-04-19T01:19:44.846Z,728.83
2017-04-19T01:20:44.821Z,728.82
2017-04-19T01:21:44.798Z,728.79
2017-04-19T01:22:44.774Z,728.8
2017-04-19T01:23:44.751Z,728.79
2017-04-19T01:24:44.728Z,728.73
2017-04-19T01:25:44.704Z,728.78
2017-04-19T01:26:44.680Z,728.8
2017-04-19T01:27:44.657Z,728.76
2017-04-19T01:28:44.633Z,728.76
2017-04-19T01:29:44.607Z,728.82
2017-04-19T01:30:44.584Z,728.81
2017-04-19T01:31:44.561Z,728.79
2017-04-19T01:32:44.538Z,728.85
2017-04-19T01:33:44.513Z,728.82
2017-04-19T01:34:44.489Z,728.8
2017-04-19T01:35:44.465Z,728.81
2017-04-19T01:36:44.442Z,728.86
2017-04-19T01:37:44.416Z,728.83
2017-04-19T01:38:44.392Z,728.81
2017-04-19T01:39:44.369Z,728.79
2017-04-19T01:40:44.346Z,728.86
2017-04-19T01:41:44.321Z,728.85
2017-04-19T01:42:44.302Z,728.83
2017-04-19T01:43:44.274Z,728.82
2017-04-19T01:44:44.250Z,728.79
2017-04-19T01:45:44.226Z,728.8
2017-04-19T01:46:44.203Z,728.83
2017-04-19T01:47:44.178Z,728.84
2017-04-19T01:48:44.154Z,728.86
2017-04-19T01:49:44.129Z,728.82
2017-04-19T01:50:44.105Z,728.86
2017-04-19T01:51:44.081Z,728.82
2017-04-19T01:52:44.057Z,728.82
2017-04-19T01:53:44.034Z,728.85
2017-04-19T01:54:44.008Z,728.86
2017-04-19T01:55:43.985Z,728.89
2017-04-19T01:56:43.963Z,728.84
2017-04-19T01:57:43.937Z,728.86
2017-04-19T01:58:43.913Z,728.81
2017-04-19T01:59:43.889Z,728.81
2017-04-19T02:00:43.864Z,728.85
2017-04-19T02:01:43.840Z,728.81
2017-04-19T02:02:43.817Z,728.81
2017-04-19T02:03:43.793Z,728.78
2017-04-19T02:04:43.770Z,728.81
2017-04-19T02:05:43.744Z,728.8
2017-04-19T02:06:43.721Z,728.81
2017-04-19T02:07:43.695Z,728.78
2017-04-19T02:08:43.673Z,728.77
2017-04-19T02:09:43.647Z,728.7
2017-04-19T02:10:43.624Z,728.76
2017-04-19T02:11:43.600Z,728.78
2017-04-19T02:12:43.575Z,728.78
2017-04-19T02:13:43.551Z,728.78
2017-04-19T02:14:43.526Z,728.77
2017-04-19T02:15:43.503Z,728.79
2017-04-19T02:16:43.476Z,728.83
2017-04-19T02:17:43.451Z,728.84
2017-04-19T02:18:43.427Z,728.83
2017-04-19T02:19:43.404Z,728.77
2017-04-19T02:20:43.378Z,728.77
2017-04-19T02:21:43.353Z,728.82
2017-04-19T02:22:43.329Z,728.82
2017-04-19T02:23:43.303Z,728.77
2017-04-19T02:24:43.278Z,728.79
2017-04-19T02:25:43.255Z,728.76
2017-04-19T02:26:43.230Z,728.73
2017-04-19T02:27:43.205Z,728.72
2017-04-19T02:28:43.180Z,728.75
2017-04-19T02:29:43.156Z,728.79
2017-04-19T02:30:43.132Z,728.88
2017-04-19T02:31:43.106Z,728.83
2017-04-19T02:32:43.080Z,728.82
2017-04-19T02:33:43.056Z,728.8
2017-04-19T02:34:43.031Z,728.82
2017-04-19T02:35:43.006Z,728.87
2017-04-19T02:36:42.981Z,728.85
2017-04-19T02:37:42.956Z,728.79
2017-04-19T02:38:42.931Z,728.8
2017-04-19T02:39:42.907Z,728.77
2017-04-19T02:40:42.883Z,728.79
2017-04-19T02:41:42.857Z,728.79
2017-04-19T02:42:42.831Z,728.79
2017-04-19T02:43:42.805Z,728.83
2017-04-19T02:44:42.781Z,728.83
2017-04-19T02:45:42.754Z,728.82
2017-04-19T02:46:42.730Z,728.78
2017-04-19T02:47:42.705Z,728.73
2017-04-19T02:48:42.680Z,728.72
2017-04-19T02:49:42.655Z,728.75
2017-04-19T02:50:42.628Z,728.89
2017-04-19T02:51:42.606Z,728.88
2017-04-19T02:52:42.579Z,728.84
2017-04-19T02:53:42.553Z,728.87
2017-04-19T02:54:42.527Z,728.91
2017-04-19T02:55:42.502Z,728.77
2017-04-19T02:56:42.475Z,728.73
2017-04-19T02:57:42.450Z,728.78
2017-04-19T02:58:42.425Z,728.8
2017-04-19T02:59:42.401Z,728.84
2017-04-19T03:00:42.373Z,728.84
2017-04-19T03:01:42.354Z,728.83
2017-04-19T03:02:42.323Z,728.85
2017-04-19T03:03:42.299Z,728.88
2017-04-19T03:04:42.273Z,728.92
2017-04-19T03:05:42.246Z,728.87
2017-04-19T03:06:42.221Z,728.85
2017-04-19T03:07:42.197Z,728.87
2017-04-19T03:08:42.170Z,728.86
2017-04-19T03:09:42.145Z,728.92
2017-04-19T03:10:42.119Z,728.8
2017-04-19T03:11:42.092Z,728.86
2017-04-19T03:12:42.071Z,728.84
2017-04-19T03:13:42.044Z,728.87
2017-04-19T03:14:42.018Z,728.84
2017-04-19T03:15:41.994Z,728.88
2017-04-19T03:16:41.968Z,728.85
2017-04-19T03:17:41.943Z,728.86
2017-04-19T03:18:41.919Z,728.89
2017-04-19T03:19:41.893Z,728.83
2017-04-19T03:20:41.867Z,728.82
2017-04-19T03:21:41.843Z,728.79
2017-04-19T03:22:41.818Z,728.78
2017-04-19T03:23:41.796Z,728.81
2017-04-19T03:24:41.768Z,728.81
2017-04-19T03:25:41.742Z,728.79
2017-04-19T03:26:41.717Z,728.83
2017-04-19T03:27:41.690Z,728.84
2017-04-19T03:28:41.666Z,728.85
2017-04-19T03:29:41.640Z,728.84
2017-04-19T03:30:41.616Z,728.82
2017-04-19T03:31:41.594Z,728.81
2017-04-19T03:32:41.567Z,728.85
2017-04-19T03:33:41.541Z,728.77
2017-04-19T03:34:41.516Z,728.77
2017-04-19T03:35:41.493Z,728.75
2017-04-19T03:36:41.466Z,728.75
2017-04-19T03:37:41.442Z,728.68
2017-04-19T03:38:41.419Z,728.72
2017-04-19T03:39:41.395Z,728.72
2017-04-19T03:40:41.370Z,728.73
2017-04-19T03:41:41.344Z,728.7
2017-04-19T03:42:41.321Z,728.75
2017-04-19T03:43:41.297Z,728.74
2017-04-19T03:44:41.271Z,728.72
2017-04-19T03:45:41.247Z,728.78
2017-04-19T03:46:41.223Z,728.74
2017-04-19T03:47:41.199Z,728.78
2017-04-19T03:48:41.175Z,728.71
2017-04-19T03:49:41.152Z,728.73
2017-04-19T03:50:41.127Z,728.77
2017-04-19T03:51:41.101Z,728.75
2017-04-19T03:52:41.079Z,728.76
2017-04-19T03:53:41.052Z,728.79
2017-04-19T03:54:41.028Z,728.8
2017-04-19T03:55:41.004Z,728.8
2017-04-19T03:56:40.991Z,728.76
2017-04-19T03:57:40.956Z,728.82
2017-04-19T03:58:40.930Z,728.84
2017-04-19T03:59:40.906Z,728.87
2017-04-19T04:00:40.881Z,728.86
2017-04-19T04:01:40.857Z,728.8
2017-04-19T04:02:40.833Z,728.84
2017-04-19T04:03:40.809Z,728.85
2017-04-19T04:04:40.784Z,728.86
2017-04-19T04:05:40.760Z,728.83
2017-04-19T04:06:40.735Z,728.87
2017-04-19T04:07:40.711Z,728.85
2017-04-19T04:08:40.687Z,728.84
2017-04-19T04:09:40.664Z,728.82
2017-04-19T04:10:40.638Z,728.84
2017-04-19T04:11:40.615Z,728.84
2017-04-19T04:12:40.590Z,728.78
2017-04-19T04:13:40.565Z,728.86
2017-04-19T04:14:40.541Z,728.78
2017-04-19T04:15:40.517Z,728.82
2017-04-19T04:16:40.492Z,728.85
2017-04-19T04:17:40.467Z,728.85
2017-04-19T04:18:40.442Z,728.86
2017-04-19T04:19:40.417Z,728.85
2017-04-19T04:20:40.392Z,728.82
2017-04-19T04:21:40.367Z,728.83
2017-04-19T04:22:40.342Z,728.9
2017-04-19T04:23:40.319Z,728.86
2017-04-19T04:24:40.292Z,728.89
2017-04-19T04:25:40.267Z,728.88
2017-04-19T04:26:40.243Z,728.91
2017-04-19T04:27:40.217Z,728.94
2017-04-19T04:28:40.192Z,728.93
2017-04-19T04:29:40.169Z,728.99
2017-04-19T04:30:40.142Z,728.93
2017-04-19T04:31:40.117Z,728.92
2017-04-19T04:32:40.093Z,728.94
2017-04-19T04:33:40.068Z,728.96
2017-04-19T04:34:40.044Z,729
2017-04-19T04:35:40.019Z,728.96
2017-04-19T04:36:39.995Z,728.95
2017-04-19T04:37:39.970Z,729.02
2017-04-19T04:38:39.946Z,729.01
2017-04-19T04:39:39.921Z,729
2017-04-19T04:40:39.897Z,728.99
2017-04-19T04:41:39.872Z,729.01
2017-04-19T04:42:39.847Z,729
2017-04-19T04:43:39.823Z,728.99
2017-04-19T04:44:39.799Z,728.94
2017-04-19T04:45:39.774Z,728.95
2017-04-19T04:46:39.748Z,728.9
2017-04-19T04:47:39.725Z,728.91
2017-04-19T04:58:44.962Z,728.96
2017-04-19T04:59:39.435Z,728.93
2017-04-19T05:00:39.411Z,728.98
2017-04-19T05:01:39.385Z,729.02
2017-04-19T05:02:39.361Z,729.03
2017-04-19T05:03:39.337Z,729.01
2017-04-19T05:04:39.312Z,729.03
2017-04-19T05:05:39.289Z,729.04
2017-04-19T05:06:39.264Z,729.07
2017-04-19T05:07:39.242Z,729.07
2017-04-19T05:08:39.216Z,729.13
2017-04-19T05:09:39.193Z,729.06
2017-04-19T05:10:39.169Z,729.09
2017-04-19T05:11:39.144Z,729.1
2017-04-19T05:12:39.119Z,729.05
2017-04-19T05:13:39.095Z,729.06
2017-04-19T05:14:39.071Z,729.01
2017-04-19T05:15:39.046Z,729.04
2017-04-19T05:16:39.026Z,729.09
2017-04-19T05:17:39.029Z,729.14
2017-04-19T05:18:38.972Z,729.14
2017-04-19T05:19:38.947Z,729.11
2017-04-19T05:20:38.924Z,729.13
2017-04-19T05:21:38.924Z,729.16
2017-04-19T05:22:38.874Z,729.13
2017-04-19T05:23:38.848Z,729.11
2017-04-19T05:24:38.825Z,728.94
2017-04-19T05:25:38.802Z,729.11
2017-04-19T05:26:38.774Z,729.13
2017-04-19T05:27:38.748Z,729.02
2017-04-19T05:28:38.724Z,729.11
2017-04-19T05:29:38.698Z,729.19
2017-04-19T05:30:38.673Z,729.1
2017-04-19T05:31:38.647Z,729.09
2017-04-19T05:32:38.622Z,729.23
2017-04-19T05:33:38.596Z,729.17
2017-04-19T05:34:38.572Z,729.24
2017-04-19T05:35:38.546Z,729.14
2017-04-19T05:36:38.521Z,729.15
2017-04-19T05:37:38.494Z,729.19
2017-04-19T05:38:38.469Z,729.26
2017-04-19T05:39:38.443Z,729.22
2017-04-19T05:40:38.416Z,729.07
2017-04-19T05:41:38.390Z,729.24
2017-04-19T05:42:38.365Z,729.35
2017-04-19T05:43:38.340Z,729.3
2017-04-19T05:44:38.312Z,729.37
2017-04-19T05:45:38.287Z,729.43
2017-04-19T05:46:38.262Z,729.37
2017-04-19T05:47:38.236Z,729.34
2017-04-19T05:48:38.208Z,729.36
2017-04-19T05:49:38.183Z,729.37
2017-04-19T05:50:38.158Z,729.43
2017-04-19T05:51:38.132Z,729.52
2017-04-19T05:52:38.106Z,729.46
2017-04-19T05:53:38.079Z,729.47
2017-04-19T05:54:38.057Z,729.49
2017-04-19T05:55:38.027Z,729.44
2017-04-19T05:56:38.001Z,729.43
2017-04-19T05:57:37.976Z,729.45
2017-04-19T05:58:37.949Z,729.47
2017-04-19T05:59:37.934Z,729.49
2017-04-19T06:00:37.897Z,729.45
2017-04-19T06:01:37.871Z,729.46
2017-04-19T06:02:37.846Z,729.46
2017-04-19T06:03:37.819Z,729.47
2017-04-19T06:04:37.793Z,729.53
2017-04-19T06:05:37.767Z,729.58
2017-04-19T06:06:37.739Z,729.59
2017-04-19T06:07:37.722Z,729.56
2017-04-19T06:08:37.687Z,729.57
2017-04-19T06:09:37.662Z,729.58
2017-04-19T06:10:37.636Z,729.68
2017-04-19T06:11:37.611Z,729.65
2017-04-19T06:12:37.585Z,729.62
2017-04-19T06:13:37.559Z,729.56
2017-04-19T06:14:37.533Z,729.54
2017-04-19T06:15:37.508Z,729.61
2017-04-19T06:16:37.483Z,729.6
2017-04-19T06:17:37.456Z,729.63
2017-04-19T06:18:37.432Z,729.66
2017-04-19T06:19:37.407Z,729.69
2017-04-19T06:20:37.382Z,729.61
2017-04-19T06:21:37.355Z,729.68
2017-04-19T06:22:37.331Z,729.58
2017-04-19T06:23:37.306Z,729.62
2017-04-19T06:24:37.280Z,729.64
2017-04-19T06:25:37.298Z,729.63
2017-04-19T06:26:37.232Z,729.56
2017-04-19T06:27:37.207Z,729.57
2017-04-19T06:28:37.182Z,729.55
2017-04-19T06:29:37.157Z,729.62
2017-04-19T06:30:37.132Z,729.64
2017-04-19T06:31:37.108Z,729.67
2017-04-19T06:32:37.081Z,729.72
2017-04-19T06:33:37.057Z,729.67
2017-04-19T06:34:37.033Z,729.63
2017-04-19T06:35:37.006Z,729.68
2017-04-19T06:36:36.981Z,729.68
2017-04-19T06:37:36.957Z,729.76
2017-04-19T06:38:36.932Z,729.77
2017-04-19T06:39:36.906Z,729.73
2017-04-19T06:40:36.905Z,729.75
2017-04-19T06:41:36.858Z,729.73
2017-04-19T06:42:36.833Z,729.71
2017-04-19T06:43:36.807Z,729.75
2017-04-19T06:44:36.781Z,729.75
2017-04-19T06:45:36.757Z,729.75
2017-04-19T06:46:36.731Z,729.75
2017-04-19T06:47:36.707Z,729.81
2017-04-19T06:48:36.683Z,729.78
2017-04-19T06:49:36.658Z,729.79
2017-04-19T06:50:36.631Z,729.82
2017-04-19T06:51:36.607Z,729.82
2017-04-19T06:52:36.582Z,729.82
2017-04-19T06:53:36.558Z,729.82
2017-04-19T06:54:36.532Z,729.84
2017-04-19T06:55:36.508Z,729.84
2017-04-19T06:56:36.484Z,729.84
2017-04-19T06:57:36.459Z,729.79
2017-04-19T06:58:36.437Z,729.77
2017-04-19T06:59:36.410Z,729.85
2017-04-19T07:00:36.387Z,729.84
2017-04-19T07:01:36.362Z,729.86
2017-04-19T07:02:36.337Z,729.86
2017-04-19T07:03:36.314Z,729.83
2017-04-19T07:04:36.290Z,729.91
2017-04-19T07:05:36.263Z,729.82
2017-04-19T07:06:36.240Z,729.85
2017-04-19T07:07:36.216Z,729.82
2017-04-19T07:08:36.190Z,729.81
2017-04-19T07:09:36.166Z,729.86
2017-04-19T07:10:36.142Z,729.83
2017-04-19T07:11:36.118Z,729.87
2017-04-19T07:12:36.119Z,729.92
2017-04-19T07:13:36.070Z,729.85
2017-04-19T07:14:36.046Z,729.77
2017-04-19T07:15:36.021Z,729.88
2017-04-19T07:16:35.997Z,729.84
2017-04-19T07:17:35.973Z,729.81
2017-04-19T07:18:35.948Z,729.82
2017-04-19T07:19:35.924Z,729.83
2017-04-19T07:20:35.900Z,729.88
2017-04-19T07:21:35.877Z,729.87
2017-04-19T07:22:35.856Z,729.88
2017-04-19T07:23:35.827Z,729.85
2017-04-19T07:24:35.804Z,729.78
2017-04-19T07:25:35.780Z,729.89
2017-04-19T07:26:35.756Z,729.78
2017-04-19T07:27:35.729Z,729.83
2017-04-19T07:28:35.707Z,729.86
2017-04-19T07:29:35.684Z,729.85
2017-04-19T07:30:35.660Z,729.87
2017-04-19T07:31:35.637Z,729.85
2017-04-19T07:32:35.614Z,729.86
2017-04-19T07:33:35.590Z,729.86
2017-04-19T07:34:35.567Z,729.82
2017-04-19T07:35:35.543Z,729.76
2017-04-19T07:36:35.521Z,729.81
2017-04-19T07:37:35.497Z,729.83
2017-04-19T07:38:35.473Z,729.88
2017-04-19T07:39:35.450Z,729.87
2017-04-19T07:40:35.427Z,729.9
2017-04-19T07:41:35.404Z,729.89
2017-04-19T07:42:35.378Z,729.9
2017-04-19T07:43:35.356Z,729.89
2017-04-19T07:44:35.332Z,729.93
2017-04-19T07:45:35.308Z,729.92
2017-04-19T07:46:35.284Z,729.9
2017-04-19T07:47:35.261Z,729.84
2017-04-19T07:48:35.238Z,729.9
2017-04-19T07:49:35.214Z,729.91
2017-04-19T07:50:35.191Z,729.91
2017-04-19T07:51:35.168Z,729.91
2017-04-19T07:52:35.143Z,729.93
2017-04-19T07:53:35.120Z,729.9
2017-04-19T07:54:35.098Z,729.88
2017-04-19T07:55:35.073Z,729.91
2017-04-19T07:56:35.049Z,729.96
2017-04-19T07:57:35.025Z,729.96
2017-04-19T07:58:35.002Z,729.97
2017-04-19T07:59:34.980Z,729.94
2017-04-19T08:00:34.957Z,729.95
2017-04-19T08:01:34.934Z,729.92
2017-04-19T08:02:34.909Z,730
2017-04-19T08:03:34.886Z,730
2017-04-19T08:04:34.863Z,729.96
2017-04-19T08:05:34.841Z,729.98
2017-04-19T08:06:34.820Z,729.98
2017-04-19T08:07:34.794Z,730.03
2017-04-19T08:08:34.773Z,730.04
2017-04-19T08:09:34.750Z,730.03
2017-04-19T08:10:34.728Z,730.01
2017-04-19T08:11:34.705Z,730.01
2017-04-19T08:12:34.682Z,730.02
2017-04-19T08:13:34.661Z,730.01
2017-04-19T08:14:34.637Z,730
2017-04-19T08:15:34.614Z,729.96
2017-04-19T08:16:34.592Z,729.98
2017-04-19T08:17:34.571Z,730.03
2017-04-19T08:18:34.546Z,730
2017-04-19T08:19:34.525Z,730
2017-04-19T08:20:34.504Z,729.89
2017-04-19T08:21:34.479Z,730.08
2017-04-19T08:22:34.457Z,729.94
2017-04-19T08:23:34.435Z,730.07
2017-04-19T08:24:34.412Z,730.14
2017-04-19T08:25:34.389Z,730.15
2017-04-19T08:26:34.366Z,730.16
2017-04-19T08:27:34.342Z,730.2
2017-04-19T08:28:34.317Z,730.26
2017-04-19T08:29:34.301Z,730.27
2017-04-19T08:30:34.272Z,730.25
2017-04-19T08:31:34.249Z,730.29
2017-04-19T08:32:34.223Z,730.25
2017-04-19T08:33:34.200Z,730.31
2017-04-19T08:34:34.177Z,730.22
2017-04-19T08:35:34.154Z,730.27
2017-04-19T08:36:34.130Z,730.35
2017-04-19T08:37:34.107Z,730.36
2017-04-19T08:38:34.083Z,730.42
2017-04-19T08:39:34.060Z,730.41
2017-04-19T08:40:34.035Z,730.42
2017-04-19T08:41:34.013Z,730.43
2017-04-19T08:42:33.989Z,730.4
2017-04-19T08:43:33.965Z,730.48
2017-04-19T08:44:33.942Z,730.43
2017-04-19T08:45:33.920Z,730.35
2017-04-19T08:46:33.896Z,730.42
2017-04-19T08:47:33.870Z,730.47
2017-04-19T08:48:33.847Z,730.5
2017-04-19T08:49:33.823Z,730.42
2017-04-19T08:50:33.800Z,730.41
2017-04-19T08:51:33.776Z,730.4
2017-04-19T08:52:33.753Z,730.48
2017-04-19T08:53:33.729Z,730.43
2017-04-19T08:54:33.705Z,730.51
2017-04-19T08:55:33.681Z,730.51
2017-04-19T08:56:33.657Z,730.49
2017-04-19T08:57:33.632Z,730.45
2017-04-19T08:58:33.610Z,730.53
2017-04-19T08:59:33.586Z,730.56
2017-04-19T09:00:33.562Z,730.55
2017-04-19T09:01:33.537Z,730.6
2017-04-19T09:02:33.514Z,730.59
2017-04-19T09:03:33.492Z,730.57
2017-04-19T09:04:33.466Z,730.63
2017-04-19T09:05:33.440Z,730.66
2017-04-19T09:06:33.417Z,730.63
2017-04-19T09:07:33.395Z,730.62
2017-04-19T09:08:33.371Z,730.63
2017-04-19T09:09:33.345Z,730.67
2017-04-19T09:10:33.335Z,730.65
2017-04-19T09:11:33.297Z,730.74
2017-04-19T09:12:33.274Z,730.76
2017-04-19T09:13:33.249Z,730.69
2017-04-19T09:14:33.225Z,730.75
2017-04-19T09:15:33.231Z,730.72
2017-04-19T09:16:33.178Z,730.76
2017-04-19T09:17:33.155Z,730.73
2017-04-19T09:18:33.130Z,730.79
2017-04-19T09:19:33.106Z,730.77
2017-04-19T09:20:33.083Z,730.8
2017-04-19T09:21:33.060Z,730.76
2017-04-19T09:22:33.036Z,730.76
2017-04-19T09:23:33.013Z,730.76
2017-04-19T09:24:32.988Z,730.74
2017-04-19T09:25:32.965Z,730.72
2017-04-19T09:26:32.941Z,730.81
2017-04-19T09:27:32.917Z,730.81
2017-04-19T09:28:32.894Z,730.78
2017-04-19T09:29:32.869Z,730.85
2017-04-19T09:30:32.847Z,730.87
2017-04-19T09:31:32.822Z,730.92
2017-04-19T09:32:32.798Z,730.93
2017-04-19T09:33:32.776Z,730.94
2017-04-19T09:34:32.753Z,730.98
2017-04-19T09:35:32.730Z,730.99
2017-04-19T09:36:32.707Z,731.01
2017-04-19T09:37:32.686Z,730.98
2017-04-19T09:38:32.661Z,730.97
2017-04-19T09:39:32.638Z,731.01
2017-04-19T09:40:32.614Z,731.02
2017-04-19T09:41:32.592Z,731.01
2017-04-19T09:42:32.567Z,731.02
2017-04-19T09:43:32.545Z,730.98
2017-04-19T09:44:32.524Z,731.03
2017-04-19T09:45:32.499Z,730.97
2017-04-19T09:46:32.477Z,731.02
2017-04-19T09:47:32.454Z,731.03
2017-04-19T09:48:32.431Z,731.06
2017-04-19T09:49:32.408Z,731.08
2017-04-19T09:50:32.406Z,731.07
2017-04-19T09:51:32.365Z,731.08
2017-04-19T09:52:32.343Z,731.07
2017-04-19T09:53:32.320Z,731.11
2017-04-19T09:54:32.297Z,731.08
2017-04-19T09:55:32.277Z,731.12
2017-04-19T09:56:32.253Z,731.09
2017-04-19T09:57:32.233Z,731.11
2017-04-19T09:58:32.212Z,731.09
2017-04-19T09:59:32.189Z,731.11
2017-04-19T10:00:32.166Z,731.14
2017-04-19T10:01:32.160Z,731.1
2017-04-19T10:02:32.135Z,731.12
2017-04-19T10:03:32.116Z,731.17
2017-04-19T10:04:32.092Z,731.21
2017-04-19T10:05:32.078Z,731.2
2017-04-19T10:06:32.052Z,731.15
2017-04-19T10:07:32.019Z,731.16
2017-04-19T10:08:31.997Z,731.11
2017-04-19T10:09:31.977Z,731.12
2017-04-19T10:10:31.955Z,731.12
2017-04-19T10:11:31.931Z,731.14
2017-04-19T10:12:31.911Z,731.09
2017-04-19T10:13:31.887Z,731.11
2017-04-19T10:14:31.865Z,731.12
2017-04-19T10:15:31.841Z,731.12
2017-04-19T10:16:31.819Z,731.1
2017-04-19T10:17:31.797Z,731.1
2017-04-19T10:18:31.774Z,731.16
2017-04-19T10:19:31.751Z,731.15
2017-04-19T10:20:31.727Z,731.18
2017-04-19T10:21:31.706Z,731.11
2017-04-19T10:22:31.680Z,731.13
2017-04-19T10:23:31.659Z,731.17
2017-04-19T10:24:31.636Z,731.16
2017-04-19T10:25:31.614Z,731.18
2017-04-19T10:26:31.590Z,731.09
2017-04-19T10:27:31.569Z,731.11
2017-04-19T10:28:31.548Z,731.15
2017-04-19T10:29:31.525Z,731.15
2017-04-19T10:30:31.503Z,731.12
2017-04-19T10:31:31.480Z,731.12
2017-04-19T10:32:31.463Z,731.18
2017-04-19T10:33:31.437Z,731.18
2017-04-19T10:34:31.416Z,731.13
2017-04-19T10:35:31.396Z,731.14
2017-04-19T10:36:31.374Z,731.08
2017-04-19T10:37:31.351Z,731.16
2017-04-19T10:38:31.331Z,731.17
2017-04-19T10:39:31.310Z,731.15
2017-04-19T10:40:31.287Z,731.18
2017-04-19T10:41:31.266Z,731.21
2017-04-19T10:42:31.247Z,731.2
2017-04-19T10:43:31.224Z,731.15
2017-04-19T10:44:31.203Z,731.17
2017-04-19T10:45:31.182Z,731.18
2017-04-19T10:46:31.162Z,731.23
2017-04-19T10:47:31.141Z,731.22
2017-04-19T10:48:31.120Z,731.22
2017-04-19T10:49:31.100Z,731.08
2017-04-19T10:50:31.080Z,731.16
2017-04-19T10:51:31.059Z,731.16
2017-04-19T10:52:31.038Z,731.23
2017-04-19T10:53:31.016Z,731.21
2017-04-19T10:54:30.995Z,731.23
2017-04-19T10:55:30.979Z,731.22
2017-04-19T10:56:30.955Z,731.21
2017-04-19T10:57:30.938Z,731.19
2017-04-19T10:58:30.914Z,731.18
2017-04-19T10:59:30.893Z,731.22
2017-04-19T11:00:30.871Z,731.25
2017-04-19T11:01:30.851Z,731.18
2017-04-19T11:02:30.829Z,731.21
2017-04-19T11:03:30.811Z,731.25
2017-04-19T11:04:30.790Z,731.22
2017-04-19T11:05:30.769Z,731.28
2017-04-19T11:06:30.748Z,731.26
2017-04-19T11:07:30.729Z,731.3
2017-04-19T11:08:30.709Z,731.26
2017-04-19T11:09:30.689Z,731.28
2017-04-19T11:10:30.667Z,731.25
2017-04-19T11:11:30.647Z,731.3
2017-04-19T11:12:30.628Z,731.26
2017-04-19T11:13:30.605Z,731.26
2017-04-19T11:14:30.585Z,731.32
2017-04-19T11:15:30.563Z,731.32
2017-04-19T11:16:30.544Z,731.32
2017-04-19T11:17:30.523Z,731.29
2017-04-19T11:18:30.502Z,731.32
2017-04-19T11:19:30.480Z,731.26
2017-04-19T11:20:30.459Z,731.3
2017-04-19T11:21:30.439Z,731.27
2017-04-19T11:22:30.419Z,731.3
2017-04-19T11:23:30.398Z,731.26
2017-04-19T11:24:30.377Z,731.27
2017-04-19T11:25:30.357Z,731.22
2017-04-19T11:26:30.336Z,731.18
2017-04-19T11:27:30.315Z,731.19
2017-04-19T11:28:30.294Z,731.12
2017-04-19T11:29:30.273Z,731.21
2017-04-19T11:30:30.261Z,731.19
2017-04-19T11:31:30.229Z,731.27
2017-04-19T11:32:30.218Z,731.24
2017-04-19T11:33:30.187Z,731.23
2017-04-19T11:34:30.182Z,731.3
2017-04-19T11:35:30.157Z,731.24
2017-04-19T11:36:30.134Z,731.29
2017-04-19T11:37:30.101Z,731.31
2017-04-19T11:38:30.079Z,731.29
2017-04-19T11:39:30.056Z,731.29
2017-04-19T11:40:30.046Z,731.3
2017-04-19T11:41:30.021Z,731.26
2017-04-19T11:42:29.988Z,731.35
2017-04-19T11:43:29.965Z,731.28
2017-04-19T11:44:29.945Z,731.32
2017-04-19T11:45:29.923Z,731.31
2017-04-19T11:46:29.899Z,731.3
2017-04-19T11:47:29.875Z,731.31
2017-04-19T11:48:29.854Z,731.31
2017-04-19T11:49:29.831Z,731.34
2017-04-19T11:50:29.807Z,731.4
2017-04-19T11:51:29.787Z,731.4
2017-04-19T11:52:29.762Z,731.36
2017-04-19T11:53:29.737Z,731.3
2017-04-19T11:54:29.714Z,731.42
2017-04-19T11:55:29.691Z,731.41
2017-04-19T11:56:29.668Z,731.41
2017-04-19T11:57:29.643Z,731.43
2017-04-19T11:58:29.618Z,731.41
2017-04-19T11:59:29.596Z,731.38
2017-04-19T12:00:29.594Z,731.44
2017-04-19T12:01:29.548Z,731.4
2017-04-19T12:02:29.524Z,731.43
2017-04-19T12:03:29.499Z,731.39
2017-04-19T12:04:29.474Z,731.4
2017-04-19T12:05:29.452Z,731.44
2017-04-19T12:06:29.428Z,731.46
2017-04-19T12:07:29.405Z,731.42
2017-04-19T12:08:29.379Z,731.46
2017-04-19T12:09:29.358Z,731.47
2017-04-19T12:10:29.334Z,731.45
2017-04-19T12:11:29.309Z,731.49
2017-04-19T12:12:29.285Z,731.46
2017-04-19T12:13:29.264Z,731.45
2017-04-19T12:14:29.241Z,731.49
2017-04-19T12:15:29.217Z,731.47
2017-04-19T12:16:29.193Z,731.47
2017-04-19T12:17:29.173Z,731.44
2017-04-19T12:18:29.149Z,731.43
2017-04-19T12:19:29.127Z,731.4
2017-04-19T12:20:29.106Z,731.42
2017-04-19T12:21:29.085Z,731.39
2017-04-19T12:22:29.062Z,731.35
2017-04-19T12:23:29.039Z,731.32
2017-04-19T12:24:29.019Z,731.35
2017-04-19T12:25:28.997Z,731.41
2017-04-19T12:26:28.974Z,731.36
2017-04-19T12:27:28.954Z,731.36
2017-04-19T12:28:28.932Z,731.43
2017-04-19T12:29:28.913Z,731.45
2017-04-19T12:30:28.891Z,731.48
2017-04-19T12:31:28.872Z,731.54
2017-04-19T12:32:28.849Z,731.55
2017-04-19T12:33:28.829Z,731.58
2017-04-19T12:34:28.808Z,731.57
2017-04-19T12:35:28.787Z,731.56
2017-04-19T12:36:28.768Z,731.55
2017-04-19T12:37:28.746Z,731.58
2017-04-19T12:38:28.727Z,731.56
2017-04-19T12:39:28.705Z,731.53
2017-04-19T12:40:28.684Z,731.52
2017-04-19T12:41:28.663Z,731.54